sensor_id;sensor_type;location;lat;lon;timestamp;P1;durP1;ratioP1;P2;durP2;ratioP2
49910;SDS011;35803;53.096;5.844;2022-07-29T00:00:15;2.13;;;1.02;;
49910;SDS011;35803;53.096;5.844;2022-07-29T00:02:40;2.28;;;1.00;;
49910;SDS011;35803;53.096;5.844;2022-07-29T00:05:07;2.25;;;1.10;;
49910;SDS011;35803;53.096;5.844;2022-07-29T00:07:33;1.15;;;0.90;;
49910;SDS011;35803;53.096;5.844;2022-07-29T00:09:59;1.35;;;1.08;;
49910;SDS011;35803;53.096;5.844;2022-07-29T00:12:30;1.23;;;0.95;;
49910;SDS011;35803;53.096;5.844;2022-07-29T00:14:56;1.85;;;1.10;;
49910;SDS011;35803;53.096;5.844;2022-07-29T00:17:22;2.13;;;1.20;;
49910;SDS011;35803;53.096;5.844;2022-07-29T00:19:48;1.00;;;0.90;;
49910;SDS011;35803;53.096;5.844;2022-07-29T00:22:14;1.67;;;1.23;;
49910;SDS011;35803;53.096;5.844;2022-07-29T00:24:39;1.25;;;1.15;;
49910;SDS011;35803;53.096;5.844;2022-07-29T00:27:05;1.33;;;1.02;;
49910;SDS011;35803;53.096;5.844;2022-07-29T00:29:31;4.13;;;1.50;;
49910;SDS011;35803;53.096;5.844;2022-07-29T00:31:56;2.20;;;1.23;;
49910;SDS011;35803;53.096;5.844;2022-07-29T00:34:22;1.90;;;1.15;;
49910;SDS011;35803;53.096;5.844;2022-07-29T00:37:26;1.30;;;1.00;;
49910;SDS011;35803;53.096;5.844;2022-07-29T00:39:52;1.02;;;1.00;;
49910;SDS011;35803;53.096;5.844;2022-07-29T00:42:17;1.17;;;1.10;;
49910;SDS011;35803;53.096;5.844;2022-07-29T00:44:43;1.50;;;1.35;;
49910;SDS011;35803;53.096;5.844;2022-07-29T00:47:09;1.30;;;1.10;;
49910;SDS011;35803;53.096;5.844;2022-07-29T00:49:35;1.75;;;1.10;;
49910;SDS011;35803;53.096;5.844;2022-07-29T00:52:02;1.10;;;1.00;;
49910;SDS011;35803;53.096;5.844;2022-07-29T00:54:28;1.15;;;1.05;;
49910;SDS011;35803;53.096;5.844;2022-07-29T00:56:55;0.98;;;0.90;;
49910;SDS011;35803;53.096;5.844;2022-07-29T00:59:24;1.23;;;1.00;;
49910;SDS011;35803;53.096;5.844;2022-07-29T01:01:52;1.13;;;0.93;;
49910;SDS011;35803;53.096;5.844;2022-07-29T01:04:18;2.80;;;1.10;;
49910;SDS011;35803;53.096;5.844;2022-07-29T01:06:44;1.58;;;1.10;;
49910;SDS011;35803;53.096;5.844;2022-07-29T01:09:10;2.45;;;1.08;;
49910;SDS011;35803;53.096;5.844;2022-07-29T01:11:36;1.80;;;1.10;;
49910;SDS011;35803;53.096;5.844;2022-07-29T01:14:02;0.80;;;0.80;;
49910;SDS011;35803;53.096;5.844;2022-07-29T01:16:32;1.48;;;1.00;;
49910;SDS011;35803;53.096;5.844;2022-07-29T01:19:00;2.45;;;1.17;;
49910;SDS011;35803;53.096;5.844;2022-07-29T01:24:33;1.17;;;0.88;;
49910;SDS011;35803;53.096;5.844;2022-07-29T01:29:45;1.15;;;1.08;;
49910;SDS011;35803;53.096;5.844;2022-07-29T01:32:29;2.13;;;1.08;;
49910;SDS011;35803;53.096;5.844;2022-07-29T01:40:33;1.10;;;0.90;;
49910;SDS011;35803;53.096;5.844;2022-07-29T01:43:03;4.22;;;1.25;;
49910;SDS011;35803;53.096;5.844;2022-07-29T01:46:08;1.20;;;1.10;;
49910;SDS011;35803;53.096;5.844;2022-07-29T01:48:31;2.15;;;1.00;;
49910;SDS011;35803;53.096;5.844;2022-07-29T01:51:19;2.40;;;1.15;;
49910;SDS011;35803;53.096;5.844;2022-07-29T01:56:36;1.33;;;1.00;;
49910;SDS011;35803;53.096;5.844;2022-07-29T01:59:03;2.53;;;1.15;;
49910;SDS011;35803;53.096;5.844;2022-07-29T02:01:30;1.15;;;1.05;;
49910;SDS011;35803;53.096;5.844;2022-07-29T02:03:56;1.75;;;0.90;;
49910;SDS011;35803;53.096;5.844;2022-07-29T02:06:23;2.60;;;1.02;;
49910;SDS011;35803;53.096;5.844;2022-07-29T02:08:49;1.30;;;1.20;;
49910;SDS011;35803;53.096;5.844;2022-07-29T02:11:15;1.80;;;1.30;;
49910;SDS011;35803;53.096;5.844;2022-07-29T02:13:41;2.05;;;1.00;;
49910;SDS011;35803;53.096;5.844;2022-07-29T02:16:08;1.02;;;0.90;;
49910;SDS011;35803;53.096;5.844;2022-07-29T02:18:36;1.10;;;1.00;;
49910;SDS011;35803;53.096;5.844;2022-07-29T02:21:02;1.20;;;1.10;;
49910;SDS011;35803;53.096;5.844;2022-07-29T02:23:28;1.45;;;1.00;;
49910;SDS011;35803;53.096;5.844;2022-07-29T02:25:56;1.02;;;1.00;;
49910;SDS011;35803;53.096;5.844;2022-07-29T02:28:22;2.05;;;1.35;;
49910;SDS011;35803;53.096;5.844;2022-07-29T02:30:50;1.60;;;1.35;;
49910;SDS011;35803;53.096;5.844;2022-07-29T02:33:18;1.55;;;1.08;;
49910;SDS011;35803;53.096;5.844;2022-07-29T02:35:44;1.15;;;0.75;;
49910;SDS011;35803;53.096;5.844;2022-07-29T02:38:12;1.77;;;1.10;;
49910;SDS011;35803;53.096;5.844;2022-07-29T02:40:58;1.02;;;0.88;;
49910;SDS011;35803;53.096;5.844;2022-07-29T02:43:24;1.10;;;1.00;;
49910;SDS011;35803;53.096;5.844;2022-07-29T02:45:51;2.60;;;1.15;;
49910;SDS011;35803;53.096;5.844;2022-07-29T02:48:18;2.60;;;1.10;;
49910;SDS011;35803;53.096;5.844;2022-07-29T02:50:51;1.65;;;1.40;;
49910;SDS011;35803;53.096;5.844;2022-07-29T02:53:24;1.58;;;1.08;;
49910;SDS011;35803;53.096;5.844;2022-07-29T02:55:55;2.15;;;1.27;;
49910;SDS011;35803;53.096;5.844;2022-07-29T02:58:27;2.55;;;1.23;;
49910;SDS011;35803;53.096;5.844;2022-07-29T03:01:02;1.52;;;1.23;;
49910;SDS011;35803;53.096;5.844;2022-07-29T03:03:32;1.55;;;1.10;;
49910;SDS011;35803;53.096;5.844;2022-07-29T03:06:01;1.10;;;1.00;;
49910;SDS011;35803;53.096;5.844;2022-07-29T03:08:27;1.70;;;1.13;;
49910;SDS011;35803;53.096;5.844;2022-07-29T03:10:56;1.00;;;0.98;;
49910;SDS011;35803;53.096;5.844;2022-07-29T03:13:22;2.13;;;1.05;;
49910;SDS011;35803;53.096;5.844;2022-07-29T03:15:48;1.25;;;1.15;;
49910;SDS011;35803;53.096;5.844;2022-07-29T03:18:14;3.88;;;1.13;;
49910;SDS011;35803;53.096;5.844;2022-07-29T03:20:40;1.23;;;1.10;;
49910;SDS011;35803;53.096;5.844;2022-07-29T03:23:06;1.20;;;1.10;;
49910;SDS011;35803;53.096;5.844;2022-07-29T03:25:32;1.25;;;1.15;;
49910;SDS011;35803;53.096;5.844;2022-07-29T03:27:58;1.52;;;1.10;;
49910;SDS011;35803;53.096;5.844;2022-07-29T03:30:24;3.63;;;1.35;;
49910;SDS011;35803;53.096;5.844;2022-07-29T03:32:50;2.50;;;1.30;;
49910;SDS011;35803;53.096;5.844;2022-07-29T03:35:15;3.05;;;1.15;;
49910;SDS011;35803;53.096;5.844;2022-07-29T03:37:47;1.60;;;1.20;;
49910;SDS011;35803;53.096;5.844;2022-07-29T03:40:15;1.45;;;1.30;;
49910;SDS011;35803;53.096;5.844;2022-07-29T03:42:43;1.42;;;1.10;;
49910;SDS011;35803;53.096;5.844;2022-07-29T03:45:13;1.52;;;1.23;;
49910;SDS011;35803;53.096;5.844;2022-07-29T03:47:45;1.35;;;1.15;;
49910;SDS011;35803;53.096;5.844;2022-07-29T03:50:14;2.42;;;1.10;;
49910;SDS011;35803;53.096;5.844;2022-07-29T03:52:40;1.92;;;1.20;;
49910;SDS011;35803;53.096;5.844;2022-07-29T03:55:06;2.78;;;1.10;;
49910;SDS011;35803;53.096;5.844;2022-07-29T03:57:32;1.42;;;1.30;;
49910;SDS011;35803;53.096;5.844;2022-07-29T03:59:58;3.75;;;1.10;;
49910;SDS011;35803;53.096;5.844;2022-07-29T04:02:25;1.77;;;1.00;;
49910;SDS011;35803;53.096;5.844;2022-07-29T04:04:50;3.58;;;1.05;;
49910;SDS011;35803;53.096;5.844;2022-07-29T04:07:16;2.20;;;1.20;;
49910;SDS011;35803;53.096;5.844;2022-07-29T04:09:42;2.63;;;1.10;;
49910;SDS011;35803;53.096;5.844;2022-07-29T04:12:07;2.05;;;1.17;;
49910;SDS011;35803;53.096;5.844;2022-07-29T04:14:33;1.15;;;0.95;;
49910;SDS011;35803;53.096;5.844;2022-07-29T04:17:03;3.72;;;0.95;;
49910;SDS011;35803;53.096;5.844;2022-07-29T04:19:29;1.33;;;1.00;;
49910;SDS011;35803;53.096;5.844;2022-07-29T04:21:56;0.95;;;0.82;;
49910;SDS011;35803;53.096;5.844;2022-07-29T04:24:25;1.92;;;0.98;;
49910;SDS011;35803;53.096;5.844;2022-07-29T04:26:51;0.90;;;0.88;;
49910;SDS011;35803;53.096;5.844;2022-07-29T04:29:17;3.15;;;1.00;;
49910;SDS011;35803;53.096;5.844;2022-07-29T04:31:43;3.67;;;1.30;;
49910;SDS011;35803;53.096;5.844;2022-07-29T04:34:14;1.17;;;1.10;;
49910;SDS011;35803;53.096;5.844;2022-07-29T04:36:40;1.25;;;0.90;;
49910;SDS011;35803;53.096;5.844;2022-07-29T04:39:05;1.05;;;0.95;;
49910;SDS011;35803;53.096;5.844;2022-07-29T04:41:31;1.15;;;0.85;;
49910;SDS011;35803;53.096;5.844;2022-07-29T04:43:56;0.90;;;0.90;;
49910;SDS011;35803;53.096;5.844;2022-07-29T04:46:22;1.10;;;0.90;;
49910;SDS011;35803;53.096;5.844;2022-07-29T04:48:48;0.90;;;0.90;;
49910;SDS011;35803;53.096;5.844;2022-07-29T04:51:14;1.20;;;1.10;;
49910;SDS011;35803;53.096;5.844;2022-07-29T04:53:40;2.42;;;1.13;;
49910;SDS011;35803;53.096;5.844;2022-07-29T04:56:05;1.85;;;1.00;;
49910;SDS011;35803;53.096;5.844;2022-07-29T04:58:31;1.55;;;1.27;;
49910;SDS011;35803;53.096;5.844;2022-07-29T05:00:59;1.67;;;1.00;;
49910;SDS011;35803;53.096;5.844;2022-07-29T05:03:25;1.10;;;1.05;;
49910;SDS011;35803;53.096;5.844;2022-07-29T05:05:50;1.98;;;1.00;;
49910;SDS011;35803;53.096;5.844;2022-07-29T05:08:16;1.38;;;0.88;;
49910;SDS011;35803;53.096;5.844;2022-07-29T05:10:42;2.58;;;0.95;;
49910;SDS011;35803;53.096;5.844;2022-07-29T05:13:07;2.30;;;1.20;;
49910;SDS011;35803;53.096;5.844;2022-07-29T05:15:33;2.85;;;0.90;;
49910;SDS011;35803;53.096;5.844;2022-07-29T05:17:59;1.83;;;1.02;;
49910;SDS011;35803;53.096;5.844;2022-07-29T05:20:25;1.23;;;0.90;;
49910;SDS011;35803;53.096;5.844;2022-07-29T05:22:59;2.47;;;1.08;;
49910;SDS011;35803;53.096;5.844;2022-07-29T05:25:26;1.27;;;1.00;;
49910;SDS011;35803;53.096;5.844;2022-07-29T05:27:53;0.80;;;0.80;;
49910;SDS011;35803;53.096;5.844;2022-07-29T05:30:19;6.18;;;1.00;;
49910;SDS011;35803;53.096;5.844;2022-07-29T05:32:44;1.15;;;0.80;;
49910;SDS011;35803;53.096;5.844;2022-07-29T05:35:11;1.02;;;0.93;;
49910;SDS011;35803;53.096;5.844;2022-07-29T05:37:36;1.00;;;1.00;;
49910;SDS011;35803;53.096;5.844;2022-07-29T05:40:02;1.88;;;1.17;;
49910;SDS011;35803;53.096;5.844;2022-07-29T05:42:28;1.42;;;0.90;;
49910;SDS011;35803;53.096;5.844;2022-07-29T05:44:54;2.75;;;1.35;;
49910;SDS011;35803;53.096;5.844;2022-07-29T05:47:20;1.75;;;1.08;;
49910;SDS011;35803;53.096;5.844;2022-07-29T05:49:46;1.30;;;1.15;;
49910;SDS011;35803;53.096;5.844;2022-07-29T05:52:12;1.92;;;1.00;;
49910;SDS011;35803;53.096;5.844;2022-07-29T05:54:40;1.58;;;0.90;;
49910;SDS011;35803;53.096;5.844;2022-07-29T05:57:06;1.70;;;1.20;;
49910;SDS011;35803;53.096;5.844;2022-07-29T05:59:35;2.97;;;1.35;;
49910;SDS011;35803;53.096;5.844;2022-07-29T06:02:01;0.90;;;0.90;;
49910;SDS011;35803;53.096;5.844;2022-07-29T06:04:27;3.47;;;1.17;;
49910;SDS011;35803;53.096;5.844;2022-07-29T06:06:55;1.33;;;0.90;;
49910;SDS011;35803;53.096;5.844;2022-07-29T06:09:20;2.00;;;1.02;;
49910;SDS011;35803;53.096;5.844;2022-07-29T06:11:47;1.40;;;1.00;;
49910;SDS011;35803;53.096;5.844;2022-07-29T06:14:13;1.13;;;1.00;;
49910;SDS011;35803;53.096;5.844;2022-07-29T06:16:39;2.28;;;1.05;;
49910;SDS011;35803;53.096;5.844;2022-07-29T06:19:04;2.17;;;0.90;;
49910;SDS011;35803;53.096;5.844;2022-07-29T06:21:30;1.05;;;0.90;;
49910;SDS011;35803;53.096;5.844;2022-07-29T06:23:56;1.67;;;1.30;;
49910;SDS011;35803;53.096;5.844;2022-07-29T06:26:21;2.08;;;1.08;;
49910;SDS011;35803;53.096;5.844;2022-07-29T06:28:48;1.88;;;0.95;;
49910;SDS011;35803;53.096;5.844;2022-07-29T06:31:13;2.03;;;1.02;;
49910;SDS011;35803;53.096;5.844;2022-07-29T06:33:39;1.35;;;1.02;;
49910;SDS011;35803;53.096;5.844;2022-07-29T06:36:05;1.60;;;1.00;;
49910;SDS011;35803;53.096;5.844;2022-07-29T06:38:31;2.00;;;1.02;;
49910;SDS011;35803;53.096;5.844;2022-07-29T06:40:57;2.67;;;1.00;;
49910;SDS011;35803;53.096;5.844;2022-07-29T06:43:28;2.22;;;1.20;;
49910;SDS011;35803;53.096;5.844;2022-07-29T06:45:57;2.10;;;1.00;;
49910;SDS011;35803;53.096;5.844;2022-07-29T06:48:24;2.38;;;1.10;;
49910;SDS011;35803;53.096;5.844;2022-07-29T06:50:49;0.90;;;0.90;;
49910;SDS011;35803;53.096;5.844;2022-07-29T06:53:15;3.97;;;2.80;;
49910;SDS011;35803;53.096;5.844;2022-07-29T06:55:40;1.35;;;1.17;;
49910;SDS011;35803;53.096;5.844;2022-07-29T06:58:07;1.63;;;1.35;;
49910;SDS011;35803;53.096;5.844;2022-07-29T07:00:34;1.08;;;0.90;;
49910;SDS011;35803;53.096;5.844;2022-07-29T07:03:00;1.98;;;0.82;;
49910;SDS011;35803;53.096;5.844;2022-07-29T07:05:26;1.48;;;1.00;;
49910;SDS011;35803;53.096;5.844;2022-07-29T07:07:51;2.08;;;1.40;;
49910;SDS011;35803;53.096;5.844;2022-07-29T07:10:17;1.08;;;0.93;;
49910;SDS011;35803;53.096;5.844;2022-07-29T07:12:42;1.13;;;1.02;;
49910;SDS011;35803;53.096;5.844;2022-07-29T07:15:08;1.00;;;0.90;;
49910;SDS011;35803;53.096;5.844;2022-07-29T07:17:33;1.90;;;1.10;;
49910;SDS011;35803;53.096;5.844;2022-07-29T07:19:59;1.20;;;1.10;;
49910;SDS011;35803;53.096;5.844;2022-07-29T07:22:25;2.38;;;1.20;;
49910;SDS011;35803;53.096;5.844;2022-07-29T07:24:50;2.42;;;1.10;;
49910;SDS011;35803;53.096;5.844;2022-07-29T07:27:16;1.90;;;1.27;;
49910;SDS011;35803;53.096;5.844;2022-07-29T07:29:41;1.92;;;1.20;;
49910;SDS011;35803;53.096;5.844;2022-07-29T07:32:07;3.83;;;1.15;;
49910;SDS011;35803;53.096;5.844;2022-07-29T07:34:33;3.33;;;1.00;;
49910;SDS011;35803;53.096;5.844;2022-07-29T07:36:58;3.80;;;1.40;;
49910;SDS011;35803;53.096;5.844;2022-07-29T07:39:24;3.90;;;1.60;;
49910;SDS011;35803;53.096;5.844;2022-07-29T07:41:53;3.05;;;1.40;;
49910;SDS011;35803;53.096;5.844;2022-07-29T07:44:19;2.55;;;1.15;;
49910;SDS011;35803;53.096;5.844;2022-07-29T07:46:45;1.15;;;1.05;;
49910;SDS011;35803;53.096;5.844;2022-07-29T07:49:10;4.32;;;1.50;;
49910;SDS011;35803;53.096;5.844;2022-07-29T07:51:36;1.98;;;1.08;;
49910;SDS011;35803;53.096;5.844;2022-07-29T07:54:01;1.48;;;1.30;;
49910;SDS011;35803;53.096;5.844;2022-07-29T07:56:30;2.25;;;1.23;;
49910;SDS011;35803;53.096;5.844;2022-07-29T07:58:56;2.22;;;1.30;;
49910;SDS011;35803;53.096;5.844;2022-07-29T08:01:21;3.70;;;1.42;;
49910;SDS011;35803;53.096;5.844;2022-07-29T08:03:48;2.05;;;1.40;;
49910;SDS011;35803;53.096;5.844;2022-07-29T08:06:14;1.60;;;1.38;;
49910;SDS011;35803;53.096;5.844;2022-07-29T08:08:40;1.67;;;1.25;;
49910;SDS011;35803;53.096;5.844;2022-07-29T08:11:05;2.03;;;1.00;;
49910;SDS011;35803;53.096;5.844;2022-07-29T08:13:31;1.10;;;1.02;;
49910;SDS011;35803;53.096;5.844;2022-07-29T08:15:57;1.30;;;1.00;;
49910;SDS011;35803;53.096;5.844;2022-07-29T08:18:25;1.73;;;1.02;;
49910;SDS011;35803;53.096;5.844;2022-07-29T08:20:52;1.52;;;1.27;;
49910;SDS011;35803;53.096;5.844;2022-07-29T08:23:17;1.92;;;1.30;;
49910;SDS011;35803;53.096;5.844;2022-07-29T08:25:46;1.95;;;1.35;;
49910;SDS011;35803;53.096;5.844;2022-07-29T08:28:12;3.10;;;1.17;;
49910;SDS011;35803;53.096;5.844;2022-07-29T08:30:38;2.13;;;1.40;;
49910;SDS011;35803;53.096;5.844;2022-07-29T08:33:03;1.88;;;1.05;;
49910;SDS011;35803;53.096;5.844;2022-07-29T08:35:29;1.90;;;1.00;;
49910;SDS011;35803;53.096;5.844;2022-07-29T08:37:54;2.90;;;1.60;;
49910;SDS011;35803;53.096;5.844;2022-07-29T08:40:21;1.77;;;1.23;;
49910;SDS011;35803;53.096;5.844;2022-07-29T08:42:48;3.53;;;1.55;;
49910;SDS011;35803;53.096;5.844;2022-07-29T08:45:15;2.10;;;1.30;;
49910;SDS011;35803;53.096;5.844;2022-07-29T08:47:40;1.65;;;1.30;;
49910;SDS011;35803;53.096;5.844;2022-07-29T08:50:07;2.50;;;1.15;;
49910;SDS011;35803;53.096;5.844;2022-07-29T08:52:35;2.40;;;1.38;;
49910;SDS011;35803;53.096;5.844;2022-07-29T08:55:02;2.85;;;1.25;;
49910;SDS011;35803;53.096;5.844;2022-07-29T08:57:31;1.52;;;1.27;;
49910;SDS011;35803;53.096;5.844;2022-07-29T08:59:57;2.55;;;1.52;;
49910;SDS011;35803;53.096;5.844;2022-07-29T09:02:25;2.80;;;1.30;;
49910;SDS011;35803;53.096;5.844;2022-07-29T09:04:53;3.08;;;1.35;;
49910;SDS011;35803;53.096;5.844;2022-07-29T09:07:19;2.85;;;1.40;;
49910;SDS011;35803;53.096;5.844;2022-07-29T09:09:46;2.25;;;1.27;;
49910;SDS011;35803;53.096;5.844;2022-07-29T09:12:12;5.28;;;1.70;;
49910;SDS011;35803;53.096;5.844;2022-07-29T09:14:39;3.17;;;1.60;;
49910;SDS011;35803;53.096;5.844;2022-07-29T09:17:05;3.00;;;1.77;;
49910;SDS011;35803;53.096;5.844;2022-07-29T09:19:32;1.60;;;1.38;;
49910;SDS011;35803;53.096;5.844;2022-07-29T09:22:00;5.75;;;1.60;;
49910;SDS011;35803;53.096;5.844;2022-07-29T09:24:38;3.03;;;1.50;;
49910;SDS011;35803;53.096;5.844;2022-07-29T09:27:17;2.17;;;1.20;;
49910;SDS011;35803;53.096;5.844;2022-07-29T09:29:57;2.65;;;1.40;;
49910;SDS011;35803;53.096;5.844;2022-07-29T09:32:33;1.92;;;1.50;;
49910;SDS011;35803;53.096;5.844;2022-07-29T09:35:14;1.85;;;1.35;;
49910;SDS011;35803;53.096;5.844;2022-07-29T09:37:42;2.88;;;1.83;;
49910;SDS011;35803;53.096;5.844;2022-07-29T09:40:12;1.98;;;1.40;;
49910;SDS011;35803;53.096;5.844;2022-07-29T09:42:38;2.65;;;1.77;;
49910;SDS011;35803;53.096;5.844;2022-07-29T09:45:04;2.78;;;1.60;;
49910;SDS011;35803;53.096;5.844;2022-07-29T09:47:43;6.05;;;1.90;;
49910;SDS011;35803;53.096;5.844;2022-07-29T09:50:16;2.80;;;1.50;;
49910;SDS011;35803;53.096;5.844;2022-07-29T09:52:49;2.05;;;1.40;;
49910;SDS011;35803;53.096;5.844;2022-07-29T09:55:16;2.35;;;1.80;;
49910;SDS011;35803;53.096;5.844;2022-07-29T09:57:42;1.70;;;1.60;;
49910;SDS011;35803;53.096;5.844;2022-07-29T10:00:09;1.90;;;1.60;;
49910;SDS011;35803;53.096;5.844;2022-07-29T10:02:41;3.17;;;1.60;;
49910;SDS011;35803;53.096;5.844;2022-07-29T10:05:29;4.07;;;2.00;;
49910;SDS011;35803;53.096;5.844;2022-07-29T10:07:57;1.95;;;1.58;;
49910;SDS011;35803;53.096;5.844;2022-07-29T10:10:27;3.25;;;1.70;;
49910;SDS011;35803;53.096;5.844;2022-07-29T10:13:01;5.40;;;2.17;;
49910;SDS011;35803;53.096;5.844;2022-07-29T10:15:31;1.90;;;1.67;;
49910;SDS011;35803;53.096;5.844;2022-07-29T10:17:59;1.85;;;1.73;;
49910;SDS011;35803;53.096;5.844;2022-07-29T10:20:25;2.10;;;1.50;;
49910;SDS011;35803;53.096;5.844;2022-07-29T10:22:52;2.75;;;1.80;;
49910;SDS011;35803;53.096;5.844;2022-07-29T10:25:18;4.10;;;1.83;;
49910;SDS011;35803;53.096;5.844;2022-07-29T10:27:45;2.58;;;1.92;;
49910;SDS011;35803;53.096;5.844;2022-07-29T10:30:12;2.63;;;1.60;;
49910;SDS011;35803;53.096;5.844;2022-07-29T10:32:44;3.42;;;1.90;;
49910;SDS011;35803;53.096;5.844;2022-07-29T10:35:18;2.63;;;1.75;;
49910;SDS011;35803;53.096;5.844;2022-07-29T10:38:07;5.00;;;1.67;;
49910;SDS011;35803;53.096;5.844;2022-07-29T10:43:41;1.50;;;1.33;;
49910;SDS011;35803;53.096;5.844;2022-07-29T10:46:08;3.67;;;1.67;;
49910;SDS011;35803;53.096;5.844;2022-07-29T10:48:34;4.82;;;1.80;;
49910;SDS011;35803;53.096;5.844;2022-07-29T10:51:01;1.92;;;1.60;;
49910;SDS011;35803;53.096;5.844;2022-07-29T10:53:48;2.92;;;1.63;;
49910;SDS011;35803;53.096;5.844;2022-07-29T10:56:32;2.67;;;1.73;;
49910;SDS011;35803;53.096;5.844;2022-07-29T11:01:49;8.43;;;2.33;;
49910;SDS011;35803;53.096;5.844;2022-07-29T11:04:16;3.35;;;2.05;;
49910;SDS011;35803;53.096;5.844;2022-07-29T11:09:30;21.85;;;4.40;;
49910;SDS011;35803;53.096;5.844;2022-07-29T11:11:56;4.38;;;1.85;;
49910;SDS011;35803;53.096;5.844;2022-07-29T11:17:19;3.58;;;2.17;;
49910;SDS011;35803;53.096;5.844;2022-07-29T11:19:45;18.25;;;2.90;;
49910;SDS011;35803;53.096;5.844;2022-07-29T11:22:11;2.40;;;1.80;;
49910;SDS011;35803;53.096;5.844;2022-07-29T11:25:13;2.38;;;1.60;;
49910;SDS011;35803;53.096;5.844;2022-07-29T11:27:40;7.20;;;1.83;;
49910;SDS011;35803;53.096;5.844;2022-07-29T11:30:05;2.03;;;1.73;;
49910;SDS011;35803;53.096;5.844;2022-07-29T11:32:37;2.80;;;1.60;;
49910;SDS011;35803;53.096;5.844;2022-07-29T11:35:18;3.55;;;1.92;;
49910;SDS011;35803;53.096;5.844;2022-07-29T11:37:46;2.58;;;1.70;;
49910;SDS011;35803;53.096;5.844;2022-07-29T11:40:13;2.22;;;1.50;;
49910;SDS011;35803;53.096;5.844;2022-07-29T11:42:41;4.72;;;1.92;;
49910;SDS011;35803;53.096;5.844;2022-07-29T11:45:09;1.70;;;1.60;;
49910;SDS011;35803;53.096;5.844;2022-07-29T11:50:12;2.15;;;1.88;;
49910;SDS011;35803;53.096;5.844;2022-07-29T11:52:39;2.33;;;1.90;;
49910;SDS011;35803;53.096;5.844;2022-07-29T11:55:13;1.90;;;1.45;;
49910;SDS011;35803;53.096;5.844;2022-07-29T11:57:49;2.83;;;1.80;;
49910;SDS011;35803;53.096;5.844;2022-07-29T12:00:22;2.42;;;1.77;;
49910;SDS011;35803;53.096;5.844;2022-07-29T12:02:49;2.88;;;1.67;;
49910;SDS011;35803;53.096;5.844;2022-07-29T12:05:18;2.10;;;1.60;;
49910;SDS011;35803;53.096;5.844;2022-07-29T12:07:45;3.00;;;1.92;;
49910;SDS011;35803;53.096;5.844;2022-07-29T12:10:10;3.67;;;2.15;;
49910;SDS011;35803;53.096;5.844;2022-07-29T12:12:36;4.00;;;2.28;;
49910;SDS011;35803;53.096;5.844;2022-07-29T12:15:12;2.97;;;2.00;;
49910;SDS011;35803;53.096;5.844;2022-07-29T12:17:49;3.95;;;2.00;;
49910;SDS011;35803;53.096;5.844;2022-07-29T12:20:24;4.40;;;2.08;;
49910;SDS011;35803;53.096;5.844;2022-07-29T12:22:51;3.13;;;2.08;;
49910;SDS011;35803;53.096;5.844;2022-07-29T12:25:19;4.43;;;1.90;;
49910;SDS011;35803;53.096;5.844;2022-07-29T12:27:45;2.80;;;2.20;;
49910;SDS011;35803;53.096;5.844;2022-07-29T12:30:15;2.55;;;2.10;;
49910;SDS011;35803;53.096;5.844;2022-07-29T12:35:08;4.70;;;2.33;;
49910;SDS011;35803;53.096;5.844;2022-07-29T12:37:36;3.25;;;2.40;;
49910;SDS011;35803;53.096;5.844;2022-07-29T12:40:03;3.28;;;2.53;;
49910;SDS011;35803;53.096;5.844;2022-07-29T12:42:29;4.70;;;2.00;;
49910;SDS011;35803;53.096;5.844;2022-07-29T12:44:55;4.25;;;2.28;;
49910;SDS011;35803;53.096;5.844;2022-07-29T12:47:21;3.60;;;2.00;;
49910;SDS011;35803;53.096;5.844;2022-07-29T12:49:47;3.72;;;2.47;;
49910;SDS011;35803;53.096;5.844;2022-07-29T12:52:23;5.10;;;2.67;;
49910;SDS011;35803;53.096;5.844;2022-07-29T12:54:56;6.57;;;2.70;;
49910;SDS011;35803;53.096;5.844;2022-07-29T12:57:22;3.10;;;2.22;;
49910;SDS011;35803;53.096;5.844;2022-07-29T13:00:08;3.17;;;2.30;;
49910;SDS011;35803;53.096;5.844;2022-07-29T13:02:39;2.47;;;2.22;;
49910;SDS011;35803;53.096;5.844;2022-07-29T13:05:06;3.65;;;2.50;;
49910;SDS011;35803;53.096;5.844;2022-07-29T13:07:33;5.60;;;2.20;;
49910;SDS011;35803;53.096;5.844;2022-07-29T13:15:27;4.13;;;2.33;;
49910;SDS011;35803;53.096;5.844;2022-07-29T13:17:53;4.70;;;2.33;;
49910;SDS011;35803;53.096;5.844;2022-07-29T13:20:23;3.22;;;2.50;;
49910;SDS011;35803;53.096;5.844;2022-07-29T13:22:49;3.05;;;2.58;;
49910;SDS011;35803;53.096;5.844;2022-07-29T13:25:23;3.13;;;2.42;;
49910;SDS011;35803;53.096;5.844;2022-07-29T13:27:50;3.30;;;2.55;;
49910;SDS011;35803;53.096;5.844;2022-07-29T13:30:15;3.55;;;2.75;;
49910;SDS011;35803;53.096;5.844;2022-07-29T13:32:40;5.93;;;2.65;;
49910;SDS011;35803;53.096;5.844;2022-07-29T13:35:06;4.72;;;2.78;;
49910;SDS011;35803;53.096;5.844;2022-07-29T13:37:33;4.57;;;2.55;;
49910;SDS011;35803;53.096;5.844;2022-07-29T13:40:03;5.43;;;2.75;;
49910;SDS011;35803;53.096;5.844;2022-07-29T13:42:31;4.82;;;2.78;;
49910;SDS011;35803;53.096;5.844;2022-07-29T13:44:57;4.07;;;2.40;;
49910;SDS011;35803;53.096;5.844;2022-07-29T13:47:23;4.28;;;2.70;;
49910;SDS011;35803;53.096;5.844;2022-07-29T13:49:48;4.20;;;2.40;;
49910;SDS011;35803;53.096;5.844;2022-07-29T13:52:14;2.92;;;2.45;;
49910;SDS011;35803;53.096;5.844;2022-07-29T13:54:40;3.25;;;2.10;;
49910;SDS011;35803;53.096;5.844;2022-07-29T13:57:06;2.72;;;2.28;;
49910;SDS011;35803;53.096;5.844;2022-07-29T13:59:32;3.35;;;2.45;;
49910;SDS011;35803;53.096;5.844;2022-07-29T14:01:58;4.07;;;2.25;;
49910;SDS011;35803;53.096;5.844;2022-07-29T14:04:24;4.22;;;2.13;;
49910;SDS011;35803;53.096;5.844;2022-07-29T14:06:50;3.15;;;2.25;;
49910;SDS011;35803;53.096;5.844;2022-07-29T14:09:16;3.13;;;2.40;;
49910;SDS011;35803;53.096;5.844;2022-07-29T14:11:42;4.28;;;2.60;;
49910;SDS011;35803;53.096;5.844;2022-07-29T14:14:07;3.80;;;2.30;;
49910;SDS011;35803;53.096;5.844;2022-07-29T14:16:33;3.80;;;2.72;;
49910;SDS011;35803;53.096;5.844;2022-07-29T14:18:59;2.55;;;2.22;;
49910;SDS011;35803;53.096;5.844;2022-07-29T14:21:25;4.70;;;2.67;;
49910;SDS011;35803;53.096;5.844;2022-07-29T14:23:50;3.60;;;2.63;;
49910;SDS011;35803;53.096;5.844;2022-07-29T14:26:17;5.13;;;2.40;;
49910;SDS011;35803;53.096;5.844;2022-07-29T14:28:43;3.97;;;2.33;;
49910;SDS011;35803;53.096;5.844;2022-07-29T14:31:09;3.42;;;2.15;;
49910;SDS011;35803;53.096;5.844;2022-07-29T14:33:35;4.15;;;2.38;;
49910;SDS011;35803;53.096;5.844;2022-07-29T14:36:00;3.88;;;2.45;;
49910;SDS011;35803;53.096;5.844;2022-07-29T14:38:26;3.85;;;2.40;;
49910;SDS011;35803;53.096;5.844;2022-07-29T14:40:51;2.17;;;1.92;;
49910;SDS011;35803;53.096;5.844;2022-07-29T14:43:17;3.00;;;2.10;;
49910;SDS011;35803;53.096;5.844;2022-07-29T14:45:43;2.45;;;2.10;;
49910;SDS011;35803;53.096;5.844;2022-07-29T14:48:08;6.45;;;2.30;;
49910;SDS011;35803;53.096;5.844;2022-07-29T14:50:34;4.55;;;2.50;;
49910;SDS011;35803;53.096;5.844;2022-07-29T14:53:00;3.30;;;2.08;;
49910;SDS011;35803;53.096;5.844;2022-07-29T14:55:26;2.83;;;2.22;;
49910;SDS011;35803;53.096;5.844;2022-07-29T14:57:51;3.30;;;2.25;;
49910;SDS011;35803;53.096;5.844;2022-07-29T15:00:17;4.97;;;2.35;;
49910;SDS011;35803;53.096;5.844;2022-07-29T15:02:43;4.30;;;2.35;;
49910;SDS011;35803;53.096;5.844;2022-07-29T15:05:08;2.53;;;2.17;;
49910;SDS011;35803;53.096;5.844;2022-07-29T15:07:33;4.40;;;2.38;;
49910;SDS011;35803;53.096;5.844;2022-07-29T15:09:59;3.05;;;1.92;;
49910;SDS011;35803;53.096;5.844;2022-07-29T15:12:29;2.88;;;2.10;;
49910;SDS011;35803;53.096;5.844;2022-07-29T15:14:55;4.22;;;2.45;;
49910;SDS011;35803;53.096;5.844;2022-07-29T15:17:21;2.15;;;1.90;;
49910;SDS011;35803;53.096;5.844;2022-07-29T15:19:46;3.83;;;2.45;;
49910;SDS011;35803;53.096;5.844;2022-07-29T15:22:12;2.55;;;1.95;;
49910;SDS011;35803;53.096;5.844;2022-07-29T15:24:38;2.33;;;2.00;;
49910;SDS011;35803;53.096;5.844;2022-07-29T15:27:03;3.10;;;1.83;;